Time;durP1;ratioP1;P1;durP2;ratioP2;P2;SDS_P1;SDS_P2;PMS_P1;PMS_P2;Temp;Humidity;BMP_temperature;BMP_pressure;BME280_temperature;BME280_humidity;BME280_pressure;Samples;Min_cycle;Max_cycle;Signal;HPM_P1;HPM_P2
2021/12/12 00:00:03;;;;;;;4.85;2.67;;;;;;;19.25;53.56;97399.13;10453916;28;20029;-21
2021/12/12 00:05:11;;;;;;;3.75;2.15;;;;;;;19.23;53.57;97401.63;10465631;28;20036;-22
2021/12/12 00:10:20;;;;;;;4.05;1.88;;;;;;;19.24;53.57;97413.47;10459889;28;20028;-21
2021/12/12 00:15:22;;;;;;;3.42;2.38;;;;;;;18.98;53.64;97373.44;10459980;28;20466;-21
2021/12/12 00:20:24;;;;;;;3.83;2.47;;;;;;;19.25;53.42;97416.88;10453926;28;20079;-21
2021/12/12 00:25:28;;;;;;;10.15;2.35;;;;;;;19.09;53.67;97397.25;10459605;28;20033;-22
2021/12/12 00:30:29;;;;;;;2.65;1.75;;;;;;;19.20;53.51;97433.75;10456465;28;20061;-21
2021/12/12 00:35:30;;;;;;;2.58;1.95;;;;;;;19.22;53.37;97437.16;10458218;28;20041;-21
2021/12/12 00:40:37;;;;;;;4.93;2.03;;;;;;;19.19;53.63;97439.69;10460094;28;20033;-21
2021/12/12 00:45:38;;;;;;;4.45;2.28;;;;;;;19.17;53.81;97447.22;10467458;28;20115;-21
2021/12/12 00:50:42;;;;;;;4.65;1.73;;;;;;;19.23;53.58;97446.47;10458645;28;20060;-21
2021/12/12 00:55:44;;;;;;;3.70;2.20;;;;;;;19.19;53.51;97449.84;10458121;28;20111;-21
2021/12/12 01:00:50;;;;;;;4.80;1.80;;;;;;;19.21;53.36;97449.00;10457199;28;20105;-21
2021/12/12 01:05:51;;;;;;;2.77;1.73;;;;;;;19.23;53.40;97449.00;10468908;28;20020;-21
2021/12/12 01:10:58;;;;;;;3.95;1.67;;;;;;;19.23;53.35;97456.63;10458628;28;20039;-21
2021/12/12 01:16:11;;;;;;;4.75;1.55;;;;;;;19.27;53.32;97455.81;10460390;28;20059;-21
2021/12/12 01:21:18;;;;;;;3.28;2.15;;;;;;;19.21;53.59;97458.31;10451338;28;20040;-21
2021/12/12 01:26:18;;;;;;;4.72;1.25;;;;;;;19.20;53.61;97467.63;10459672;28;20381;-21
2021/12/12 01:31:24;;;;;;;3.40;1.67;;;;;;;19.21;53.55;97476.06;10449413;28;20029;-21
2021/12/12 01:36:43;;;;;;;4.18;2.03;;;;;;;19.20;53.58;97499.75;10451232;28;20036;-22
2021/12/12 01:41:52;;;;;;;6.07;2.55;;;;;;;19.19;53.63;97493.81;10450610;28;20571;-21
2021/12/12 01:47:02;;;;;;;3.80;1.85;;;;;;;19.16;53.86;97498.00;10458149;28;20120;-21
2021/12/12 01:52:06;;;;;;;3.03;1.75;;;;;;;19.14;53.47;97471.75;10455154;28;20116;-21
2021/12/12 01:57:06;;;;;;;2.95;2.13;;;;;;;18.93;53.74;97448.72;10450468;28;20044;-21
2021/12/12 02:02:11;;;;;;;4.70;1.60;;;;;;;19.21;53.29;97488.75;10453464;28;20037;-21
2021/12/12 02:07:15;;;;;;;2.70;1.92;;;;;;;19.08;53.54;97471.69;10465830;28;20087;-21
2021/12/12 02:12:19;;;;;;;3.13;1.50;;;;;;;19.21;53.49;97483.69;10451147;28;20037;-22
2021/12/12 02:17:31;;;;;;;7.10;1.80;;;;;;;19.19;53.61;97493.81;10452669;28;20040;-21
2021/12/12 02:38:23;;;;;;;2.72;1.60;;;;;;;19.20;53.70;97482.00;10466489;28;20058;-21
2021/12/12 02:43:28;;;;;;;2.55;2.10;;;;;;;19.21;53.66;97486.22;10457240;28;20079;-21
2021/12/12 02:48:37;;;;;;;5.10;1.60;;;;;;;19.25;53.54;97495.59;10459165;28;20033;-21
2021/12/12 02:53:48;;;;;;;3.72;1.70;;;;;;;19.18;53.53;97498.88;10458317;28;20032;-21
2021/12/12 02:58:49;;;;;;;5.30;1.88;;;;;;;19.19;53.73;97506.50;10464986;28;20500;-21
2021/12/12 03:03:50;;;;;;;3.30;1.65;;;;;;;19.03;53.68;97483.47;10461360;28;20106;-22
2021/12/12 03:08:54;;;;;;;2.08;1.35;;;;;;;19.17;53.71;97497.16;10465789;28;20036;-21
2021/12/12 03:13:57;;;;;;;2.83;1.15;;;;;;;19.16;53.73;97500.56;10456859;28;20025;-23
2021/12/12 03:18:57;;;;;;;2.05;1.27;;;;;;;18.92;53.46;97459.69;10460229;28;20111;-21
2021/12/12 03:24:04;;;;;;;2.60;1.35;;;;;;;19.15;53.81;97496.28;10458406;28;20032;-21
2021/12/12 03:29:06;;;;;;;2.75;1.73;;;;;;;19.20;53.52;97504.84;10461979;28;20037;-21
2021/12/12 03:34:09;;;;;;;4.43;1.55;;;;;;;19.13;53.58;97497.97;10456246;28;20032;-21
2021/12/12 03:39:15;;;;;;;3.03;1.42;;;;;;;19.23;53.36;97517.56;10457976;28;20111;-21
2021/12/12 03:44:20;;;;;;;3.37;1.57;;;;;;;19.15;53.41;97491.19;10460377;28;20112;-21
2021/12/12 03:49:21;;;;;;;2.00;1.20;;;;;;;19.08;53.48;97495.38;10458005;28;20037;-21
2021/12/12 03:54:22;;;;;;;4.10;1.77;;;;;;;19.17;53.47;97520.84;10451459;28;20044;-21
2021/12/12 03:59:23;;;;;;;1.90;1.10;;;;;;;19.19;53.52;97513.28;10455970;28;20111;-21
2021/12/12 04:04:45;;;;;;;2.83;1.35;;;;;;;19.16;53.47;97518.31;10464392;28;20043;-21
2021/12/12 04:09:46;;;;;;;2.97;1.25;;;;;;;19.19;53.50;97518.38;10460628;28;20045;-21
2021/12/12 04:14:47;;;;;;;2.67;1.70;;;;;;;19.13;53.46;97518.28;10456004;28;20040;-21
2021/12/12 04:19:50;;;;;;;1.98;1.23;;;;;;;19.19;53.30;97520.91;10460121;28;20038;-21
2021/12/12 04:24:54;;;;;;;3.60;1.38;;;;;;;19.19;53.37;97526.00;10457324;28;20033;-21
2021/12/12 04:29:55;;;;;;;3.10;1.48;;;;;;;19.19;53.47;97526.81;10459560;28;20087;-21
2021/12/12 04:35:00;;;;;;;3.95;1.23;;;;;;;19.07;53.39;97515.66;10457789;28;20124;-21
2021/12/12 04:40:01;;;;;;;2.38;1.30;;;;;;;19.17;53.23;97528.47;10460855;28;20025;-22
2021/12/12 04:45:15;;;;;;;2.88;1.10;;;;;;;19.19;53.17;97541.22;10458733;28;20029;-21
2021/12/12 04:50:31;;;;;;;3.53;1.40;;;;;;;19.09;53.46;97536.84;10458558;28;20124;-21
2021/12/12 04:55:41;;;;;;;4.97;1.55;;;;;;;19.15;53.33;97552.13;10457230;28;20039;-22
2021/12/12 05:00:47;;;;;;;4.78;1.08;;;;;;;19.11;53.52;97546.19;10458380;28;20040;-21
2021/12/12 05:05:48;;;;;;;;;;;;;;;19.15;53.44;97558.06;10469885;28;20039;-21
2021/12/12 05:11:17;;;;;;;1.73;1.08;;;;;;;19.20;53.16;97548.00;10460044;28;19924;-21
2021/12/12 05:16:26;;;;;;;2.03;1.38;;;;;;;19.24;53.13;97539.59;10452521;28;20045;-21
2021/12/12 05:21:33;;;;;;;1.10;1.00;;;;;;;19.19;53.17;97546.28;10456402;28;20041;-21
2021/12/12 05:26:38;;;;;;;7.22;1.80;;;;;;;19.20;53.26;97559.03;10455995;28;20043;-21
2021/12/12 05:31:40;;;;;;;2.70;1.05;;;;;;;19.05;53.44;97537.66;10454143;28;20044;-22
2021/12/12 05:36:41;;;;;;;3.45;2.13;;;;;;;19.20;53.38;97556.47;10460360;28;20032;-21
2021/12/12 05:41:42;;;;;;;2.45;0.82;;;;;;;18.99;53.31;97519.84;10456902;28;20055;-21
2021/12/12 05:46:42;;;;;;;2.15;1.08;;;;;;;19.17;53.09;97558.09;10462423;28;20089;-21
2021/12/12 05:51:43;;;;;;;3.08;1.10;;;;;;;19.17;53.40;97569.09;10454159;28;20468;-21
2021/12/12 05:56:44;;;;;;;1.88;1.20;;;;;;;19.21;53.26;97562.38;10462102;28;20032;-21
2021/12/12 06:01:45;;;;;;;2.00;0.98;;;;;;;19.17;53.03;97551.31;10486524;28;20032;-21
2021/12/12 06:06:46;;;;;;;2.10;0.93;;;;;;;19.18;53.18;97564.88;10467175;28;20041;-21
2021/12/12 06:11:49;;;;;;;1.88;1.00;;;;;;;19.09;53.06;97535.16;10462994;28;20036;-21
2021/12/12 06:16:51;;;;;;;2.35;1.05;;;;;;;19.18;52.93;97559.78;10464536;28;20033;-21
2021/12/12 06:21:56;;;;;;;1.77;1.27;;;;;;;19.14;53.06;97568.19;10460906;28;20021;-21
2021/12/12 06:27:04;;;;;;;1.85;0.93;;;;;;;19.17;52.85;97573.31;10465525;28;20043;-21
2021/12/12 06:32:05;;;;;;;2.20;0.93;;;;;;;19.14;53.02;97583.44;10463053;28;20029;-21
2021/12/12 06:37:06;;;;;;;2.17;1.13;;;;;;;19.21;52.89;97585.22;10465947;28;20503;-21
2021/12/12 06:42:11;;;;;;;2.40;1.10;;;;;;;19.22;52.88;97576.78;10461377;28;20039;-21
2021/12/12 06:47:16;;;;;;;3.22;1.05;;;;;;;19.22;53.00;97579.31;10460042;28;20471;-21
2021/12/12 06:52:18;;;;;;;2.15;0.90;;;;;;;19.26;52.65;97588.69;10461987;28;20037;-21
2021/12/12 06:57:19;;;;;;;1.92;1.13;;;;;;;19.14;52.56;97566.53;10464603;28;20036;-21
2021/12/12 07:02:23;;;;;;;2.22;1.23;;;;;;;19.22;52.43;97579.31;10481808;28;20021;-21
2021/12/12 07:07:25;;;;;;;2.80;1.10;;;;;;;19.29;52.62;97594.66;10487629;28;20056;-21
2021/12/12 07:12:26;;;;;;;1.10;0.88;;;;;;;19.28;52.56;97607.31;10459760;28;20460;-22
2021/12/12 07:17:27;;;;;;;1.40;0.93;;;;;;;19.27;52.72;97610.69;10497276;28;20111;-21
2021/12/12 07:22:28;;;;;;;1.90;0.75;;;;;;;19.22;52.59;97607.25;10473966;28;20025;-21
2021/12/12 07:27:29;;;;;;;0.98;0.70;;;;;;;19.28;52.46;97618.34;10475070;28;20051;-22
2021/12/12 07:32:29;;;;;;;1.35;1.00;;;;;;;19.25;52.55;97625.06;10484853;28;20120;-21
2021/12/12 07:37:30;;;;;;;1.25;0.90;;;;;;;19.24;52.78;97618.28;10462124;28;20496;-22
2021/12/12 07:42:31;;;;;;;3.03;1.13;;;;;;;19.15;52.67;97601.22;10480069;28;20120;-21
2021/12/12 07:47:32;;;;;;;2.40;0.90;;;;;;;19.25;52.77;97625.06;10474180;28;20033;-21
2021/12/12 07:52:32;;;;;;;2.95;1.17;;;;;;;19.26;52.65;97631.84;10470079;28;20028;-21
2021/12/12 07:57:34;;;;;;;3.08;1.05;;;;;;;19.15;52.57;97628.28;10457129;28;20058;-21
2021/12/12 08:02:35;;;;;;;5.88;1.40;;;;;;;19.24;53.13;97646.22;10460073;28;20025;-21
2021/12/12 08:07:36;;;;;;;5.60;1.42;;;;;;;19.24;53.09;97652.13;10459127;28;20035;-21
2021/12/12 08:12:37;;;;;;;17.40;14.50;;;;;;;19.31;50.59;97640.34;10461942;28;20112;-22
2021/12/12 08:17:39;;;;;;;15.52;11.88;;;;;;;19.11;47.27;97659.56;10458385;28;20032;-21
2021/12/12 08:22:41;;;;;;;14.18;9.95;;;;;;;18.80;45.86;97627.00;10460739;28;20047;-21
2021/12/12 08:27:42;;;;;;;11.55;7.60;;;;;;;18.87;44.84;97638.94;10471461;28;20050;-21
2021/12/12 08:32:46;;;;;;;10.95;7.70;;;;;;;19.04;44.19;97652.69;10458681;28;20057;-21
2021/12/12 08:37:47;;;;;;;6.63;5.85;;;;;;;19.23;43.73;97663.13;10460535;28;20131;-21
2021/12/12 08:42:51;;;;;;;8.48;6.47;;;;;;;19.22;43.06;97653.81;10458078;28;20029;-21
2021/12/12 08:47:52;;;;;;;9.10;6.25;;;;;;;19.03;42.82;97636.63;10464429;28;20028;-23
2021/12/12 08:52:54;;;;;;;7.65;6.10;;;;;;;19.01;42.54;97653.50;10459708;28;20028;-21
2021/12/12 08:58:03;;;;;;;11.43;6.97;;;;;;;19.01;42.77;97655.19;10458994;28;20596;-21
2021/12/12 09:03:06;;;;;;;10.63;7.78;;;;;;;19.05;42.85;97660.34;10462489;28;20032;-21
2021/12/12 09:08:12;;;;;;;16.73;12.00;;;;;;;19.14;45.26;97659.59;10467842;28;20124;-21
2021/12/12 09:13:20;;;;;;;23.57;14.77;;;;;;;19.14;46.22;97659.59;10456327;28;20029;-21
2021/12/12 09:18:31;;;;;;;19.23;10.65;;;;;;;19.21;47.04;97654.66;10456384;28;20125;-21
2021/12/12 09:23:37;;;;;;;25.38;15.13;;;;;;;19.11;47.61;97640.13;10457616;28;20671;-21
2021/12/12 09:28:56;;;;;;;28.20;18.05;;;;;;;19.19;48.19;97651.22;10463974;28;20037;-21
2021/12/12 09:34:05;;;;;;;18.38;12.07;;;;;;;19.22;48.40;97660.56;10462826;28;20047;-21
2021/12/12 09:39:18;;;;;;;23.55;13.68;;;;;;;19.27;48.57;97664.03;10470364;28;20029;-21
2021/12/12 09:44:55;;;;;;;25.42;12.73;;;;;;;19.22;48.98;97653.81;10460546;28;20078;-21
2021/12/12 09:55:48;;;;;;;18.83;8.90;;;;;;;18.89;46.88;97647.41;10465051;28;20028;-21
2021/12/12 10:00:57;;;;;;;24.33;12.38;;;;;;;18.91;48.21;97611.09;10461643;28;20078;-21
2021/12/12 10:06:16;;;;;;;22.88;13.45;;;;;;;19.14;49.00;97646.88;10476416;28;20039;-21
2021/12/12 10:11:35;;;;;;;19.70;12.05;;;;;;;19.16;49.15;97643.53;10466036;28;20033;-22
2021/12/12 10:16:47;;;;;;;16.88;11.05;;;;;;;19.01;49.84;97627.28;10478119;28;20033;-22
2021/12/12 10:22:15;;;;;;;16.90;11.57;;;;;;;19.13;49.92;97640.13;10473115;28;20035;-21
2021/12/12 10:27:30;;;;;;;17.40;11.13;;;;;;;19.11;50.37;97645.19;10477791;28;20441;-21
2021/12/12 10:32:40;;;;;;;15.50;11.80;;;;;;;18.99;50.23;97618.81;10473993;28;20107;-21
2021/12/12 10:38:02;;;;;;;17.15;10.95;;;;;;;18.95;50.51;97612.84;10471038;28;20032;-21
2021/12/12 10:43:08;;;;;;;14.15;10.52;;;;;;;18.96;50.56;97604.38;10474606;28;20031;-21
2021/12/12 10:48:16;;;;;;;18.10;11.13;;;;;;;19.07;50.69;97627.34;10465724;28;20116;-21
2021/12/12 10:53:34;;;;;;;16.85;10.63;;;;;;;18.95;50.69;97592.53;10462873;28;20386;-21
2021/12/12 10:59:00;;;;;;;14.40;9.80;;;;;;;18.90;51.01;97593.28;10462049;28;20037;-21
2021/12/12 11:04:09;;;;;;;13.15;9.73;;;;;;;19.04;50.98;97602.78;10465766;28;20397;-21
2021/12/12 11:09:22;;;;;;;13.57;9.70;;;;;;;19.07;50.85;97600.28;10467514;28;20037;-21
2021/12/12 11:14:28;;;;;;;15.43;10.70;;;;;;;19.12;50.90;97610.50;10461278;28;20058;-22
2021/12/12 11:19:40;;;;;;;12.80;9.63;;;;;;;19.13;50.94;97605.44;10463197;28;20025;-22
2021/12/12 11:24:46;;;;;;;14.90;9.65;;;;;;;19.11;50.92;97618.94;10465935;28;20037;-21
2021/12/12 11:29:50;;;;;;;;;;;;;;;19.05;51.28;97624.81;10468760;28;20064;-21
2021/12/12 11:34:54;;;;;;;12.75;9.38;;;;;;;18.97;51.30;97601.00;10461251;28;19919;-21
2021/12/12 11:40:05;;;;;;;12.38;8.85;;;;;;;19.05;51.23;97616.31;10462584;28;20099;-22
2021/12/12 11:45:10;;;;;;;11.57;8.82;;;;;;;19.06;51.09;97615.47;10460032;28;20063;-21
2021/12/12 11:50:21;;;;;;;12.38;8.27;;;;;;;19.04;51.20;97607.00;10467458;28;20573;-21
2021/12/12 11:55:33;;;;;;;12.23;8.75;;;;;;;19.07;50.87;97602.81;10459900;28;20055;-21
2021/12/12 12:00:46;;;;;;;10.32;7.60;;;;;;;19.10;51.16;97602.84;10459645;28;20033;-21
2021/12/12 12:06:14;;;;;;;12.30;8.32;;;;;;;19.10;51.15;97594.41;10469482;28;20412;-21
2021/12/12 12:11:57;;;;;;;12.63;8.68;;;;;;;19.12;51.38;97591.06;10458637;28;20592;-22
2021/12/12 12:17:21;;;;;;;10.60;8.25;;;;;;;18.98;51.34;97571.41;10460210;28;20489;-21
2021/12/12 12:22:38;;;;;;;8.70;7.50;;;;;;;19.08;51.67;97588.47;10456349;28;20052;-21
2021/12/12 12:27:44;;;;;;;9.60;7.93;;;;;;;19.00;51.29;97562.13;10471934;28;20047;-21
2021/12/12 12:33:06;;;;;;;8.47;7.57;;;;;;;19.04;51.59;97584.16;10457238;28;20683;-21
2021/12/12 12:38:54;;;;;;;10.82;8.00;;;;;;;19.04;51.63;97581.63;10459463;28;20036;-21
2021/12/12 12:44:49;;;;;;;9.80;8.65;;;;;;;19.07;51.46;97576.56;10457409;28;20547;-22
2021/12/12 12:50:32;;;;;;;13.05;7.85;;;;;;;18.84;51.74;97537.41;10458476;28;20035;-21
2021/12/12 12:55:57;;;;;;;10.65;7.70;;;;;;;19.03;51.55;97580.78;10442515;28;20047;-22
2021/12/12 13:01:12;;;;;;;7.95;6.72;;;;;;;19.10;51.63;97591.84;10456419;28;20029;-21
2021/12/12 13:06:55;;;;;;;7.93;7.00;;;;;;;19.09;51.46;97585.09;10469437;28;20033;-21
2021/12/12 13:12:13;;;;;;;8.95;7.30;;;;;;;19.06;51.41;97587.56;10454167;28;20037;-21
2021/12/12 13:17:14;;;;;;;10.30;8.07;;;;;;;19.08;51.71;97593.53;10461444;28;20033;-21
2021/12/12 13:22:41;;;;;;;8.03;6.63;;;;;;;19.12;51.42;97597.78;10459594;28;20081;-21
2021/12/12 13:28:08;;;;;;;8.73;6.25;;;;;;;19.13;51.58;97596.97;10468756;28;20287;-21
2021/12/12 13:33:14;;;;;;;10.00;7.10;;;;;;;19.10;51.47;97582.53;10457594;28;20033;-21
2021/12/12 13:38:20;;;;;;;8.20;6.20;;;;;;;19.13;51.58;97590.22;10464569;28;20138;-21
2021/12/12 13:43:49;;;;;;;10.00;7.03;;;;;;;19.06;51.56;97569.81;10467567;28;20024;-21
2021/12/12 13:48:56;;;;;;;7.78;5.90;;;;;;;19.02;51.68;97557.94;10458456;28;20059;-21
2021/12/12 13:54:02;;;;;;;7.22;5.70;;;;;;;19.12;51.63;97570.75;10456088;28;20260;-21
2021/12/12 13:59:19;;;;;;;8.70;6.72;;;;;;;19.14;51.83;97573.28;10456387;28;20119;-21
2021/12/12 14:04:42;;;;;;;8.73;6.00;;;;;;;19.12;51.57;97567.34;10463768;28;20400;-21
2021/12/12 14:09:48;;;;;;;7.22;6.25;;;;;;;19.05;51.54;97560.47;10453664;28;20630;-21
2021/12/12 14:14:57;;;;;;;10.00;5.57;;;;;;;19.04;47.63;97581.63;10456408;28;20031;-21
2021/12/12 14:20:08;;;;;;;9.50;6.03;;;;;;;19.09;50.50;97587.63;10460622;28;20036;-21
2021/12/12 14:25:10;;;;;;;11.70;6.65;;;;;;;19.16;51.66;97586.84;10450820;28;20025;-21
2021/12/12 14:30:13;;;;;;;10.57;6.30;;;;;;;19.21;51.53;97603.88;10468380;28;20115;-21
2021/12/12 14:35:20;;;;;;;10.25;6.28;;;;;;;19.22;51.61;97605.56;10463531;28;20033;-21
2021/12/12 14:40:25;;;;;;;10.10;6.38;;;;;;;19.24;51.51;97615.75;10460061;28;20029;-21
2021/12/12 14:45:36;;;;;;;7.18;5.63;;;;;;;19.23;51.68;97619.97;10462860;28;20722;-22
2021/12/12 14:50:51;;;;;;;7.65;5.95;;;;;;;19.23;51.63;97619.97;10469395;28;20460;-21
2021/12/12 14:56:14;;;;;;;9.38;6.38;;;;;;;19.21;51.60;97620.78;10462518;28;20058;-21
2021/12/12 15:01:20;;;;;;;11.30;6.22;;;;;;;19.19;51.74;97618.22;10462455;28;20032;-21
2021/12/12 15:06:27;;;;;;;9.63;5.63;;;;;;;19.20;51.92;97619.94;10451354;28;20616;-21
2021/12/12 15:11:33;;;;;;;7.30;5.10;;;;;;;19.21;51.95;97620.78;10462530;28;20032;-21
2021/12/12 15:16:39;;;;;;;10.53;5.37;;;;;;;19.18;52.29;97608.88;10460074;28;20029;-21
2021/12/12 15:21:42;;;;;;;;;;;;;;;18.97;52.65;97578.19;10455508;28;20083;-21
2021/12/12 15:26:45;;;;;;;9.98;4.93;;;;;;;19.14;52.73;97624.03;10462173;28;20265;-21
2021/12/12 15:31:51;;;;;;;13.35;5.70;;;;;;;19.15;52.46;97629.16;10456146;28;20485;-21
2021/12/12 15:36:58;;;;;;;21.58;6.63;;;;;;;19.18;53.05;97643.56;10456102;28;20020;-21
2021/12/12 15:42:03;;;;;;;30.45;7.32;;;;;;;19.12;52.87;97635.88;10462082;28;20040;-21
2021/12/12 15:47:09;;;;;;;24.52;9.13;;;;;;;19.15;52.94;97640.97;10453859;28;20678;-22
2021/12/12 15:52:15;;;;;;;31.55;9.23;;;;;;;19.12;53.04;97630.78;10461007;28;20029;-21
2021/12/12 15:57:22;;;;;;;29.10;7.38;;;;;;;19.14;53.08;97634.19;10451582;28;20041;-21
2021/12/12 16:02:29;;;;;;;13.63;6.45;;;;;;;19.15;53.44;97635.91;10452822;28;20493;-21
2021/12/12 16:07:30;;;;;;;22.70;6.88;;;;;;;19.11;53.35;97649.41;10455886;28;20040;-21
2021/12/12 16:12:40;;;;;;;18.20;7.75;;;;;;;19.13;53.75;97652.81;10452516;28;20115;-21
2021/12/12 16:17:46;;;;;;;14.38;6.38;;;;;;;19.01;53.82;97633.19;10464268;28;20766;-22
2021/12/12 16:22:53;;;;;;;14.50;6.50;;;;;;;19.31;52.41;97643.75;10457156;28;20531;-21
2021/12/12 16:27:57;;;;;;;16.55;6.93;;;;;;;19.49;52.34;97653.28;10459724;28;20053;-21
2021/12/12 16:33:06;;;;;;;15.25;6.43;;;;;;;19.45;52.01;97632.06;10449793;28;20045;-21
2021/12/12 16:38:21;;;;;;;13.90;6.15;;;;;;;19.59;52.20;97650.00;10467225;28;20027;-21
2021/12/12 16:43:24;;;;;;;13.00;5.60;;;;;;;19.70;52.31;97645.88;10449724;28;20031;-21
2021/12/12 16:48:34;;;;;;;17.70;6.30;;;;;;;19.74;52.54;97651.00;10458976;28;20051;-21
2021/12/12 16:53:39;;;;;;;10.77;5.50;;;;;;;19.75;51.81;97647.59;10470471;28;20032;-20
2021/12/12 16:58:43;;;;;;;7.80;5.13;;;;;;;19.75;51.94;97650.16;10463425;28;20091;-21
2021/12/12 17:04:03;;;;;;;9.85;5.60;;;;;;;19.78;51.71;97656.97;10460389;28;20032;-21
2021/12/12 17:09:17;;;;;;;10.40;5.20;;;;;;;19.63;51.82;97633.94;10460355;28;20033;-21
2021/12/12 17:14:22;;;;;;;7.22;4.85;;;;;;;19.77;51.39;97658.63;10463546;28;20484;-20
2021/12/12 17:19:27;;;;;;;10.80;5.53;;;;;;;19.73;51.52;97654.38;10466675;28;20036;-21
2021/12/12 17:24:41;;;;;;;20.70;7.60;;;;;;;19.79;52.05;97659.53;10453993;28;20045;-21
2021/12/12 17:29:44;;;;;;;20.08;7.93;;;;;;;19.82;51.04;97663.75;10458392;28;20051;-20
2021/12/12 17:34:53;;;;;;;19.35;9.52;;;;;;;19.77;51.34;97665.41;10453834;28;20123;-20
2021/12/12 17:40:05;;;;;;;18.13;8.60;;;;;;;19.78;52.04;97670.53;10454280;28;20101;-20
2021/12/12 17:45:24;;;;;;;15.15;7.47;;;;;;;19.80;52.96;97667.97;10447772;28;20044;-20
2021/12/12 17:51:01;;;;;;;14.02;6.95;;;;;;;19.79;52.65;97662.06;10456205;28;20564;-23
2021/12/12 17:56:16;;;;;;;14.00;6.90;;;;;;;19.73;53.47;97633.19;10464926;28;20069;-22
2021/12/12 18:01:36;;;;;;;18.13;7.53;;;;;;;19.96;52.02;97646.97;10460004;28;20037;-21
2021/12/12 18:06:39;;;;;;;16.02;6.90;;;;;;;20.02;52.87;97658.03;10459012;28;20032;-22
2021/12/12 18:11:48;;;;;;;18.65;7.57;;;;;;;20.06;51.87;97658.94;10460888;28;20436;-21
2021/12/12 18:17:08;;;;;;;14.30;6.80;;;;;;;20.12;51.85;97666.63;10475663;28;20033;-21
2021/12/12 18:22:19;;;;;;;13.27;6.43;;;;;;;20.20;51.25;97662.47;10463366;28;20024;-21
2021/12/12 18:27:32;;;;;;;13.00;6.78;;;;;;;20.20;51.35;97675.16;10461396;28;20064;-19
2021/12/12 18:32:45;;;;;;;15.60;7.28;;;;;;;19.98;50.74;97665.59;10463207;28;20604;-19
2021/12/12 18:37:55;;;;;;;12.40;6.45;;;;;;;19.95;51.70;97678.31;10463449;28;20527;-22
2021/12/12 18:42:58;;;;;;;17.25;6.60;;;;;;;19.96;52.44;97672.38;10460057;28;20401;-19
2021/12/12 18:48:01;;;;;;;13.18;6.55;;;;;;;20.09;51.98;97685.25;10459268;28;20024;-19
2021/12/12 18:53:11;;;;;;;13.35;5.85;;;;;;;20.06;51.74;97699.63;10465779;28;20033;-19
2021/12/12 18:58:20;;;;;;;14.35;8.00;;;;;;;19.97;51.92;97695.28;10467295;28;20063;-22
2021/12/12 19:03:32;;;;;;;10.98;6.47;;;;;;;19.91;51.84;97697.75;10448282;28;20064;-20
2021/12/12 19:08:37;;;;;;;12.32;6.72;;;;;;;19.89;52.20;97706.19;10456757;28;20075;-21
2021/12/12 19:13:41;;;;;;;12.73;6.93;;;;;;;19.85;52.61;97704.47;10457307;28;20424;-22
2021/12/12 19:18:45;;;;;;;15.95;7.03;;;;;;;19.81;52.73;97707.81;10456702;28;20136;-21
2021/12/12 19:24:09;;;;;;;10.70;5.97;;;;;;;19.82;52.83;97699.34;10465477;28;20034;-22
2021/12/12 19:29:35;;;;;;;11.57;5.97;;;;;;;19.82;53.50;97690.03;10460293;28;20091;-19
2021/12/12 19:34:43;;;;;;;15.25;7.03;;;;;;;19.82;54.00;97690.03;10464394;28;20032;-22
2021/12/12 19:39:46;;;;;;;13.13;6.30;;;;;;;19.82;53.89;97689.16;10465798;28;20451;-21
2021/12/12 19:44:48;;;;;;;12.27;6.30;;;;;;;19.78;52.97;97672.19;10461684;28;20393;-22
2021/12/12 19:49:53;;;;;;;10.60;5.55;;;;;;;19.82;53.10;97676.47;10467818;28;20037;-21
2021/12/12 19:55:00;;;;;;;14.77;6.60;;;;;;;19.82;53.31;97679.00;10459886;28;20024;-22
2021/12/12 20:00:15;;;;;;;10.77;5.78;;;;;;;19.80;53.26;97673.94;10454463;28;20031;-22
2021/12/12 20:05:18;;;;;;;10.80;5.85;;;;;;;19.83;52.96;97668.03;10455319;28;20033;-21
2021/12/12 20:10:26;;;;;;;11.27;5.93;;;;;;;19.87;52.78;97662.13;10462603;28;20032;-22
2021/12/12 20:15:33;;;;;;;12.32;5.45;;;;;;;19.85;52.92;97662.09;10458543;28;20310;-21
2021/12/12 20:20:44;;;;;;;;;;;;;;;19.87;52.58;97662.13;10459731;28;20506;-22
2021/12/12 20:25:53;;;;;;;10.68;5.68;;;;;;;19.86;52.55;97660.44;10452531;28;20016;-22
2021/12/12 20:30:59;;;;;;;11.98;5.57;;;;;;;19.88;52.37;97663.81;10454160;28;20040;-21
2021/12/12 20:36:21;;;;;;;14.77;5.75;;;;;;;19.83;52.97;97665.50;10456862;28;20068;-22
2021/12/12 20:41:34;;;;;;;12.55;5.38;;;;;;;19.82;52.64;97673.91;10465665;28;20040;-21
2021/12/12 20:46:43;;;;;;;10.68;5.30;;;;;;;19.80;52.82;97665.44;10457457;28;20094;-22
2021/12/12 20:51:48;;;;;;;12.30;6.40;;;;;;;19.78;52.68;97664.59;10452940;28;20040;-21
2021/12/12 20:56:55;;;;;;;11.40;5.50;;;;;;;19.73;52.72;97653.50;10456981;28;20039;-22
2021/12/12 21:02:10;;;;;;;11.65;5.55;;;;;;;19.68;52.89;97629.75;10469265;28;20031;-22
2021/12/12 21:07:14;;;;;;;11.57;5.35;;;;;;;19.70;52.48;97635.69;10460227;28;20040;-21
2021/12/12 21:12:26;;;;;;;13.02;5.15;;;;;;;19.70;52.36;97623.00;10462955;28;20039;-21
2021/12/12 21:17:29;;;;;;;12.82;5.80;;;;;;;19.94;52.15;97646.09;10458010;28;20029;-21
2021/12/12 21:22:46;;;;;;;12.63;5.65;;;;;;;19.92;52.38;97660.50;10467295;28;20056;-22
2021/12/12 21:27:47;;;;;;;14.77;5.72;;;;;;;19.86;52.54;97650.25;10468568;28;20082;-21
2021/12/12 21:32:51;;;;;;;11.73;6.35;;;;;;;19.85;52.86;97664.63;10468943;28;20390;-21
2021/12/12 21:37:52;;;;;;;12.25;5.82;;;;;;;19.82;53.15;97657.00;10469259;28;20028;-19
2021/12/12 21:42:59;;;;;;;11.30;5.50;;;;;;;19.80;52.93;97663.75;10468596;28;20020;-20
2021/12/12 21:48:11;;;;;;;12.52;5.53;;;;;;;19.79;53.12;97664.59;10467469;28;20450;-20
2021/12/12 21:53:16;;;;;;;13.02;4.85;;;;;;;19.75;53.08;97667.09;10462153;28;20143;-19
2021/12/12 21:58:34;;;;;;;11.43;4.85;;;;;;;19.66;53.16;97664.47;10476086;28;20036;-19
2021/12/12 22:03:46;;;;;;;9.50;4.60;;;;;;;19.66;53.13;97661.94;10467390;28;20033;-20
2021/12/12 22:09:01;;;;;;;9.27;4.80;;;;;;;19.78;53.11;97678.16;10465850;28;20528;-19
2021/12/12 22:14:06;;;;;;;12.55;4.93;;;;;;;19.76;53.09;97681.50;10473160;28;20059;-19
2021/12/12 22:19:14;;;;;;;12.63;5.03;;;;;;;19.78;52.62;97677.28;10462139;28;20111;-20
2021/12/12 22:24:20;;;;;;;9.05;4.97;;;;;;;19.77;53.18;97675.59;10467873;28;20555;-19
2021/12/12 22:29:30;;;;;;;8.93;4.60;;;;;;;19.76;53.15;97673.88;10466824;28;20025;-20
2021/12/12 22:34:34;;;;;;;10.02;5.13;;;;;;;19.77;53.44;97667.97;10463380;28;20053;-19
2021/12/12 22:39:39;;;;;;;10.88;4.60;;;;;;;19.74;53.49;97655.22;10465764;28;20029;-19
2021/12/12 22:44:41;;;;;;;10.57;5.10;;;;;;;19.74;53.41;97660.28;10466424;28;20029;-19
2021/12/12 22:49:43;;;;;;;10.35;4.03;;;;;;;19.76;53.23;97654.41;10464774;28;20389;-19
2021/12/12 22:55:03;;;;;;;8.07;3.80;;;;;;;19.76;52.64;97649.31;10465424;28;20381;-20
2021/12/12 23:00:09;;;;;;;6.05;3.78;;;;;;;19.89;52.92;97660.44;10462963;28;20037;-19
2021/12/12 23:05:20;;;;;;;;;;;;;;;19.84;52.61;97657.84;10464919;28;20037;-20
2021/12/12 23:10:44;;;;;;;12.25;4.50;;;;;;;19.82;53.02;97661.22;10462567;28;20378;-22
2021/12/12 23:15:51;;;;;;;7.28;4.07;;;;;;;19.53;52.93;97619.44;10464088;28;20055;-19
2021/12/12 23:21:09;;;;;;;9.43;4.07;;;;;;;19.82;52.78;97656.13;10463226;28;20017;-20
2021/12/12 23:26:10;;;;;;;6.63;4.25;;;;;;;19.78;52.93;97652.75;10463695;28;20047;-19
2021/12/12 23:31:13;;;;;;;6.85;3.90;;;;;;;19.80;52.82;97647.66;10460382;28;20060;-19
2021/12/12 23:36:16;;;;;;;10.70;3.83;;;;;;;19.78;52.81;97647.66;10461450;28;20712;-19
2021/12/12 23:41:26;;;;;;;6.97;3.60;;;;;;;19.76;52.84;97653.56;10463590;28;20179;-19
2021/12/12 23:46:32;;;;;;;7.13;3.90;;;;;;;19.84;52.96;97657.03;10456336;28;20044;-19
2021/12/12 23:51:36;;;;;;;6.32;3.38;;;;;;;19.84;53.02;97647.69;10465707;28;20037;-19
2021/12/12 23:56:43;;;;;;;8.68;4.40;;;;;;;19.80;52.83;97660.34;10459195;28;20110;-20
